Pagina principale
METAR-TAF:

METAR-TAF

Aeroporti :

Aeroporto di Tolone-Hyères

Tolone, Francia

latitudine: 43-06N, longitudine: 006-09E, altezza: 3 m

Osservazione

Il bollettino è stato emesso 20 minuti fa, alle 12:30 UTC
Vento 8 kt da est/sud-est, variando fra est e sud-est
Temperature 8°C
Umidità 46%
Pressione 1033 hPa
Visibilità 10 km o più
nessuna nube inferiore a 1500 m e nessun cumulonembo

METAR: LFTH 091230Z AUTO 11008KT 080V140 CAVOK 08/M03 Q1033 NOSIG

Ora: 13:50 (12:50 UTC)

Previsione

Il bollettino è stato emesso 4 ore e 50 minuti fa, alle 08:00 UTC
Previsione valida dal 09 alle 09 UTC al 10 alle 09 UTC
Vento 5 kt da nord/nord-ovest
Visibilità 10 km o più
nessuna nube inferiore a 1500 m e nessun cumulonembo
Evoluzione graduale
dal 09 alle 10 UTC al 09 alle 12 UTC
Vento 10 kt da est/sud-est
Evoluzione graduale
dal 09 alle 18 UTC al 09 alle 20 UTC
Vento 5 kt da nord/nord-ovest

TAF: LFTH 090800Z 0909/1009 34005KT CAVOK BECMG 0910/0912 12010KT BECMG 0918/0920 34005KT

Osservazioni e previsioni meteorologiche di più di 4000 aeroporti (messaggi METAR e TAF).

Le stazioni disponibili sono rappresentate dai dischi gialli e rossi sulla carta.

Puntare il mouse per vedere il nome della stazione.

Clicca sopra per visualizzare le osservazioni e previsioni meteorologiche.

Per cambiare la mappa : fare clic sui pulsanti verdi con una croce nera per ingrandire, il pulsante verde con un trattino per diminuire, o sulla freccia verde per le mappe adiacenti.


METAR-TAF: